Flight Track Log - Related Links

Times and Time Zones

All times are in EST time to prevent confusion due to time zone crossing. See the N449ND flight status page for this flight to view local times or setup timezone preferences in your user account.

Time Position Orientation Groundspeed Altitude Reporting Facility
EST Latitude Longitude Course Direction KTS MPH feet Rate Location/Type
Wed 09:07:34 AM 27.4978 -80.3803 347° North 95 109 500  Level Miami Center
Wed 09:08:34 AM 27.4950 -80.4014 262° West 87 100 1,200 750 Climbing Miami Center
Wed 09:09:34 AM 27.4944 -80.4272 269° West 80 92 2,000 700 Climbing Miami Center
Wed 09:10:34 AM 27.4981 -80.4531 279° West 80 92 2,600 550 Climbing Miami Center
Wed 09:11:34 AM 27.5058 -80.4742 293° West 88 101 3,100 250 Climbing Miami Center
Wed 09:12:00 AM 27.4975 -80.3726 347° North  Level Estimated
Wed 09:12:34 AM 27.5292 -80.4586 31° Northeast 89 102 3,100  Level Miami Center
Wed 09:13:34 AM 27.5528 -80.4314 46° Northeast 105 121 3,000 -50 Descending Miami Center
Wed 09:14:34 AM 27.5556 -80.4008 84° East 100 115 3,000  Level Miami Center
Wed 09:15:34 AM 27.5461 -80.3678 108° East 105 121 3,000  Level Miami Center
Wed 09:16:34 AM 27.5406 -80.3350 101° East 105 121 3,000 50 Level Miami Center
Wed 09:17:34 AM 27.5456 -80.3044 80° East 110 127 3,100 50 Climbing Miami Center
Wed 09:18:34 AM 27.5589 -80.2675 68° East 105 121 3,100 -200 Level Miami Center
Wed 09:19:34 AM 27.5842 -80.2519 29° Northeast 104 120 2,700 -450 Descending Miami Center
Wed 09:20:34 AM 27.6047 -80.2711 320° Northwest 83 96 2,200 -450 Descending Miami Center
Wed 09:21:34 AM 27.6103 -80.2972 284° West 90 104 1,800 -250 Descending Miami Center
Wed 09:22:34 AM 27.6200 -80.3231 293° West 95 109 1,700 -350 Descending Miami Center
Wed 09:23:34 AM 27.6300 -80.3494 293° West 89 102 1,100 -600 Descending Miami Center
Wed 09:24:34 AM 27.6378 -80.3731 290° West 89 102 500 -300 Descending Miami Center
Wed 09:25:34 AM 27.6475 -80.3967 295° West 89 102 500 200 Level Miami Center
Wed 09:26:34 AM 27.6553 -80.4181 292° West 89 102 900 600 Climbing Miami Center
Wed 09:27:34 AM 27.6547 -80.4461 269° West 84 97 1,700 750 Climbing Miami Center
Wed 09:28:34 AM 27.6542 -80.4694 268° West 84 97 2,400 650 Climbing Miami Center
Wed 09:29:34 AM 27.6514 -80.4953 263° West 84 97 3,000 300 Climbing Miami Center
Wed 09:30:34 AM 27.6508 -80.5211 269° West 89 102 3,000  Level Miami Center
Wed 09:31:34 AM 27.6339 -80.5253 192° South 73 84 3,000 350 Level Miami Center
Wed 09:32:34 AM 27.6136 -80.5011 133° Southeast 73 84 3,700 500 Climbing Miami Center
Wed 09:33:34 AM 27.6103 -80.4706 97° East 92 106 4,000 150 Climbing Miami Center
Wed 09:34:34 AM 27.6050 -80.4353 100° East 102 117 4,000  Level Miami Center
Wed 09:35:34 AM 27.5994 -80.4069 102° East 107 123 4,000 50 Level Miami Center
Wed 09:36:34 AM 27.5939 -80.3717 100° East 107 123 4,100  Climbing Miami Center
Wed 09:37:34 AM 27.5886 -80.3339 99° East 107 123 4,000 -300 Descending Miami Center
Wed 09:38:34 AM 27.5811 -80.3008 104° East 107 123 3,500 -450 Descending Miami Center
Wed 09:39:34 AM 27.5756 -80.2681 101° East 107 123 3,100 -200 Descending Miami Center
Wed 09:40:34 AM 27.5700 -80.2372 101° East 107 123 3,100  Level Miami Center
Wed 09:41:34 AM 27.5644 -80.2044 101° East 107 123 3,100  Level Miami Center
Wed 09:42:34 AM 27.5569 -80.1667 103° East 107 123 3,100 -50 Level Miami Center
Wed 09:43:34 AM 27.5494 -80.1336 104° East 107 123 3,000 -50 Descending Miami Center
Wed 09:44:34 AM 27.5283 -80.1403 196° South 72 83 3,000 50 Level Miami Center
Wed 09:45:34 AM 27.5053 -80.1464 193° South 86 99 3,100 50 Climbing Miami Center
Wed 09:46:34 AM 27.4758 -80.1528 191° South 95 109 3,100 -50 Level Miami Center
Wed 09:47:34 AM 27.4528 -80.1614 198° South 95 109 3,000 -400 Descending Miami Center
Wed 09:48:34 AM 27.4583 -80.1919 282° West 76 87 2,300 -600 Descending Miami Center
Wed 09:49:34 AM 27.4661 -80.2181 289° West 92 106 1,800 -350 Descending Miami Center
Wed 09:50:34 AM 27.4717 -80.2439 284° West 97 112 1,600 -100 Descending Miami Center
Wed 09:51:34 AM 27.4794 -80.2744 286° West 91 105 1,600 -250 Level Miami Center
Wed 09:52:34 AM 27.4872 -80.2981 290° West 91 105 1,100 -400 Descending Miami Center
Wed 09:53:34 AM 27.4908 -80.3217 280° West 86 99 800 -350 Descending Miami Center
Wed 09:54:34 AM 27.4964 -80.3453 285° West 86 99 400 1,100 Descending Miami Center
Wed 09:55:34 AM 27.4897 -80.3683 252° West 80 92 3,000 2,600 Climbing Miami Center

Login

Don't have an account? Register now (free) for customized features, flight alerts, and more!